Time;durP1;ratioP1;P1;durP2;ratioP2;P2;SDS_P1;SDS_P2;PMS_P1;PMS_P2;Temp;Humidity;BMP_temperature;BMP_pressure;BME280_temperature;BME280_humidity;BME280_pressure;Samples;Min_cycle;Max_cycle;Signal;HPM_P1;HPM_P2
2023/04/16 00:01:47;;;;;;;;;;;18.70;64.30;;;;;;4974599;28;1819;-73
2023/04/16 00:04:12;;;;;;;;;;;18.70;64.30;;;;;;4973988;28;893;-73
2023/04/16 00:06:38;;;;;;;;;;;18.70;64.30;;;;;;4974579;28;869;-73
2023/04/16 00:09:03;;;;;;;;;;;18.70;64.30;;;;;;4974089;28;1268;-73
2023/04/16 00:11:29;;;;;;;;;;;18.70;64.40;;;;;;4974313;28;852;-73
2023/04/16 00:13:54;;;;;;;;;;;18.70;64.40;;;;;;4974309;28;922;-73
2023/04/16 00:16:20;;;;;;;;;;;18.70;64.40;;;;;;4974114;28;1948;-73
2023/04/16 00:18:45;;;;;;;;;;;18.70;64.40;;;;;;4973770;28;1209;-73
2023/04/16 00:21:11;;;;;;;;;;;18.70;64.40;;;;;;4974476;28;832;-73
2023/04/16 00:23:36;;;;;;;;;;;18.70;64.40;;;;;;4974126;28;873;-73
2023/04/16 00:26:02;;;;;;;;;;;18.70;64.40;;;;;;4973023;28;966;-73
2023/04/16 00:28:27;;;;;;;;;;;18.70;64.50;;;;;;4972362;28;1370;-73
2023/04/16 00:30:53;;;;;;;;;;;18.70;64.50;;;;;;4971691;28;1274;-73
2023/04/16 00:33:19;;;;;;;;;;;18.70;65.20;;;;;;4973374;28;1343;-73
2023/04/16 00:35:45;;;;;;;;;;;18.70;64.50;;;;;;4972686;28;848;-72
2023/04/16 00:38:11;;;;;;;;;;;18.70;64.50;;;;;;4978478;28;1970;-72
2023/04/16 00:40:36;;;;;;;;;;;18.70;64.60;;;;;;4971242;28;1328;-73
2023/04/16 00:43:02;;;;;;;;;;;18.70;64.60;;;;;;4972071;28;1294;-73
2023/04/16 00:45:27;;;;;;;;;;;18.70;64.60;;;;;;4973141;28;1606;-73
2023/04/16 00:47:53;;;;;;;;;;;18.70;64.60;;;;;;4972537;28;1328;-71
2023/04/16 00:50:18;;;;;;;;;;;18.70;64.60;;;;;;4972453;28;1390;-73
2023/04/16 00:52:45;;;;;;;;;;;18.60;64.60;;;;;;4972230;28;1420;-72
2023/04/16 00:55:12;;;;;;;;;;;18.60;64.60;;;;;;4969968;28;1171;-74
2023/04/16 00:57:38;;;;;;;;;;;18.60;64.60;;;;;;4973403;28;1899;-75
2023/04/16 01:00:03;;;;;;;;;;;18.60;64.60;;;;;;4973475;28;1332;-74
2023/04/16 01:02:29;;;;;;;;;;;18.60;64.60;;;;;;4974002;28;1356;-73
2023/04/16 01:04:54;;;;;;;;;;;18.60;64.60;;;;;;4974740;28;1526;-73
2023/04/16 01:07:20;;;;;;;;;;;18.60;64.60;;;;;;4972905;28;1306;-73
2023/04/16 01:09:45;;;;;;;;;;;18.60;64.60;;;;;;4973818;28;1321;-72
2023/04/16 01:12:11;;;;;;;;;;;18.60;64.70;;;;;;4973176;28;920;-72
2023/04/16 01:14:36;;;;;;;;;;;18.60;64.70;;;;;;4972387;28;983;-72
2023/04/16 01:17:02;;;;;;;;;;;18.60;64.70;;;;;;4953122;28;1976;-72
2023/04/16 01:19:30;;;;;;;;;;;18.60;64.70;;;;;;4971509;28;1365;-72
2023/04/16 01:21:55;;;;;;;;;;;18.60;64.70;;;;;;4971859;28;928;-72
2023/04/16 01:24:21;;;;;;;;;;;18.60;64.80;;;;;;4972998;28;1018;-72
2023/04/16 01:26:46;;;;;;;;;;;18.60;64.80;;;;;;4973030;28;825;-72
2023/04/16 01:29:12;;;;;;;;;;;18.60;64.80;;;;;;4972331;28;1272;-72
2023/04/16 01:31:37;;;;;;;;;;;18.60;64.80;;;;;;4973688;28;1279;-72
2023/04/16 01:34:03;;;;;;;;;;;18.60;64.80;;;;;;4972869;28;959;-71
2023/04/16 01:36:28;;;;;;;;;;;18.60;64.80;;;;;;4968306;28;1899;-72
2023/04/16 01:38:54;;;;;;;;;;;18.60;64.80;;;;;;4972610;28;1404;-72
2023/04/16 01:41:19;;;;;;;;;;;18.60;64.80;;;;;;4972573;28;864;-72
2023/04/16 01:43:45;;;;;;;;;;;18.60;64.90;;;;;;4972917;28;1089;-72
2023/04/16 01:46:14;;;;;;;;;;;18.60;64.80;;;;;;4972890;28;821;-72
2023/04/16 01:48:40;;;;;;;;;;;18.50;64.80;;;;;;4972462;28;1641;-72
2023/04/16 01:51:05;;;;;;;;;;;18.50;64.80;;;;;;4972644;28;1006;-72
2023/04/16 01:53:31;;;;;;;;;;;18.50;64.90;;;;;;4971736;28;851;-72
2023/04/16 01:55:56;;;;;;;;;;;18.50;64.80;;;;;;4972591;28;883;-72
2023/04/16 01:58:22;;;;;;;;;;;18.50;64.90;;;;;;4972200;28;1926;-72
2023/04/16 02:00:47;;;;;;;;;;;18.50;64.90;;;;;;4972610;28;853;-72
2023/04/16 02:03:13;;;;;;;;;;;18.50;64.90;;;;;;4972115;28;916;-73
2023/04/16 02:05:38;;;;;;;;;;;18.50;64.90;;;;;;4972216;28;1006;-72
2023/04/16 02:08:04;;;;;;;;;;;18.50;64.90;;;;;;4971999;28;1260;-74
2023/04/16 02:10:29;;;;;;;;;;;18.50;64.90;;;;;;4972398;28;987;-73
2023/04/16 02:12:55;;;;;;;;;;;18.50;64.90;;;;;;4970940;28;836;-72
2023/04/16 02:15:21;;;;;;;;;;;18.50;64.90;;;;;;4970951;28;873;-71
2023/04/16 02:17:47;;;;;;;;;;;18.50;64.90;;;;;;4971958;28;1902;-73
2023/04/16 02:20:13;;;;;;;;;;;18.50;65.00;;;;;;4972038;28;920;-74
2023/04/16 02:22:38;;;;;;;;;;;18.50;65.00;;;;;;4971826;28;821;-74
2023/04/16 02:25:04;;;;;;;;;;;18.50;65.00;;;;;;4972250;28;805;-74
2023/04/16 02:27:29;;;;;;;;;;;18.50;65.00;;;;;;4971633;28;828;-73
2023/04/16 02:29:55;;;;;;;;;;;18.50;65.00;;;;;;4971858;28;1352;-74
2023/04/16 02:32:21;;;;;;;;;;;18.50;65.00;;;;;;4972272;28;1365;-73
2023/04/16 02:34:46;;;;;;;;;;;18.50;65.00;;;;;;4972050;28;898;-72
2023/04/16 02:37:14;;;;;;;;;;;18.50;65.00;;;;;;4971478;28;1955;-72
2023/04/16 02:39:39;;;;;;;;;;;18.50;65.00;;;;;;4971937;28;1274;-72
2023/04/16 02:42:05;;;;;;;;;;;18.40;65.00;;;;;;4970747;28;952;-72
2023/04/16 02:44:30;;;;;;;;;;;18.40;65.00;;;;;;4971029;28;895;-72
2023/04/16 02:46:55;;;;;;;;;;;18.40;65.00;;;;;;4971501;28;906;-71
2023/04/16 02:49:21;;;;;;;;;;;18.40;65.00;;;;;;4971591;28;1325;-72
2023/04/16 02:51:46;;;;;;;;;;;18.50;65.10;;;;;;4971764;28;813;-71
2023/04/16 02:54:12;;;;;;;;;;;18.50;65.10;;;;;;4972251;28;791;-72
2023/04/16 02:56:37;;;;;;;;;;;18.40;65.00;;;;;;4973026;28;1919;-74
2023/04/16 02:59:03;;;;;;;;;;;18.50;65.10;;;;;;4971711;28;1212;-74
2023/04/16 03:01:28;;;;;;;;;;;18.40;65.00;;;;;;4972116;28;781;-74
2023/04/16 03:03:54;;;;;;;;;;;18.40;65.10;;;;;;4971638;28;828;-74
2023/04/16 03:06:19;;;;;;;;;;;18.40;65.10;;;;;;4970873;28;987;-73
2023/04/16 03:08:45;;;;;;;;;;;18.40;65.10;;;;;;4971097;28;1261;-73
2023/04/16 03:11:10;;;;;;;;;;;18.40;65.10;;;;;;4971423;28;994;-72
2023/04/16 03:13:36;;;;;;;;;;;18.40;65.10;;;;;;4971420;28;1403;-72
2023/04/16 03:16:01;;;;;;;;;;;18.40;65.10;;;;;;4971627;28;856;-72
2023/04/16 03:18:27;;;;;;;;;;;18.40;65.10;;;;;;4970642;28;1906;-72
2023/04/16 03:20:52;;;;;;;;;;;18.40;65.10;;;;;;4971472;28;791;-72
2023/04/16 03:23:18;;;;;;;;;;;18.40;65.10;;;;;;4970046;28;943;-72
2023/04/16 03:25:45;;;;;;;;;;;18.40;65.20;;;;;;4971417;28;821;-72
2023/04/16 03:28:11;;;;;;;;;;;18.40;65.20;;;;;;4968992;28;1343;-72
2023/04/16 03:30:37;;;;;;;;;;;18.40;65.10;;;;;;4971074;28;943;-72
2023/04/16 03:33:02;;;;;;;;;;;18.40;65.20;;;;;;4971533;28;1344;-72
2023/04/16 03:35:28;;;;;;;;;;;18.40;65.20;;;;;;4971079;28;963;-72
2023/04/16 03:37:53;;;;;;;;;;;18.40;65.20;;;;;;4970936;28;1968;-73
2023/04/16 03:40:19;;;;;;;;;;;18.40;65.20;;;;;;4971553;28;829;-72
2023/04/16 03:42:44;;;;;;;;;;;18.40;65.20;;;;;;4971857;28;948;-72
2023/04/16 03:45:10;;;;;;;;;;;18.40;65.20;;;;;;4971340;28;912;-72
2023/04/16 03:47:35;;;;;;;;;;;18.40;65.20;;;;;;4971901;28;852;-72
2023/04/16 03:50:01;;;;;;;;;;;18.40;65.20;;;;;;4970306;28;1265;-72
2023/04/16 03:52:27;;;;;;;;;;;18.40;65.20;;;;;;4971681;28;1034;-72
2023/04/16 03:54:52;;;;;;;;;;;18.40;65.20;;;;;;4971019;28;861;-72
2023/04/16 03:57:18;;;;;;;;;;;18.40;65.20;;;;;;4970518;28;1965;-72
2023/04/16 03:59:43;;;;;;;;;;;18.40;65.20;;;;;;4968567;28;1319;-72
2023/04/16 04:02:09;;;;;;;;;;;18.40;65.30;;;;;;4969992;28;858;-72
2023/04/16 04:04:34;;;;;;;;;;;18.40;65.30;;;;;;4970144;28;857;-72
2023/04/16 04:07:00;;;;;;;;;;;18.40;65.20;;;;;;4970232;28;891;-72
2023/04/16 04:09:25;;;;;;;;;;;18.40;65.20;;;;;;4970023;28;1247;-72
2023/04/16 04:11:51;;;;;;;;;;;18.40;65.10;;;;;;4970642;28;922;-73
2023/04/16 04:14:16;;;;;;;;;;;18.50;65.10;;;;;;4970506;28;1318;-72
2023/04/16 04:16:41;;;;;;;;;;;18.60;65.00;;;;;;4971094;28;1918;-72
2023/04/16 04:19:07;;;;;;;;;;;18.70;64.90;;;;;;4972427;28;1432;-72
2023/04/16 04:21:32;;;;;;;;;;;18.70;64.60;;;;;;4955711;28;1149;-74
2023/04/16 04:23:58;;;;;;;;;;;18.90;64.30;;;;;;4974137;28;783;-73
2023/04/16 04:26:23;;;;;;;;;;;19.00;63.90;;;;;;4974090;28;1050;-73
2023/04/16 04:28:49;;;;;;;;;;;19.10;63.50;;;;;;4973902;28;1224;-72
2023/04/16 04:31:15;;;;;;;;;;;19.20;63.10;;;;;;4974115;28;1068;-73
2023/04/16 04:33:41;;;;;;;;;;;19.40;62.90;;;;;;4976949;28;1272;-73
2023/04/16 04:36:06;;;;;;;;;;;19.50;62.50;;;;;;4974102;28;875;-72
2023/04/16 04:38:32;;;;;;;;;;;19.60;62.30;;;;;;4973313;28;1914;-72
2023/04/16 04:40:58;;;;;;;;;;;19.70;62.00;;;;;;4974117;28;1000;-73
2023/04/16 04:43:23;;;;;;;;;;;19.80;61.70;;;;;;4973390;28;872;-73
2023/04/16 04:45:49;;;;;;;;;;;19.90;61.40;;;;;;4974254;28;903;-73
2023/04/16 04:48:14;;;;;;;;;;;19.90;61.10;;;;;;4970845;28;1260;-73
2023/04/16 04:50:40;;;;;;;;;;;20.00;60.90;;;;;;4973153;28;820;-73
2023/04/16 04:53:09;;;;;;;;;;;20.10;60.70;;;;;;4973091;28;849;-73
2023/04/16 04:55:35;;;;;;;;;;;20.20;60.60;;;;;;4973233;28;848;-73
2023/04/16 04:58:01;;;;;;;;;;;20.20;60.30;;;;;;4967942;28;2074;-74
2023/04/16 05:00:27;;;;;;;;;;;20.30;60.20;;;;;;4973091;28;1495;-73
2023/04/16 05:02:52;;;;;;;;;;;20.30;60.00;;;;;;4973261;28;1420;-73
2023/04/16 05:05:18;;;;;;;;;;;20.30;59.90;;;;;;4973241;28;892;-72
2023/04/16 05:07:43;;;;;;;;;;;20.40;59.80;;;;;;4972850;28;975;-73
2023/04/16 05:10:09;;;;;;;;;;;20.40;59.70;;;;;;4973101;28;1309;-72
2023/04/16 05:12:34;;;;;;;;;;;20.50;59.60;;;;;;4973401;28;813;-74
2023/04/16 05:15:00;;;;;;;;;;;20.50;59.50;;;;;;4972008;28;1041;-73
2023/04/16 05:17:25;;;;;;;;;;;20.60;59.50;;;;;;4972647;28;1903;-73
2023/04/16 05:19:51;;;;;;;;;;;20.50;59.30;;;;;;4973369;28;1336;-72
2023/04/16 05:22:17;;;;;;;;;;;20.60;59.40;;;;;;4971735;28;852;-71
2023/04/16 05:24:43;;;;;;;;;;;20.60;59.30;;;;;;4973127;28;936;-71
2023/04/16 05:27:08;;;;;;;;;;;20.60;59.20;;;;;;4972664;28;1067;-71
2023/04/16 05:29:34;;;;;;;;;;;20.60;59.20;;;;;;4973679;28;1284;-74
2023/04/16 05:32:00;;;;;;;;;;;20.70;59.20;;;;;;4974563;28;867;-76
2023/04/16 05:34:26;;;;;;;;;;;20.70;59.10;;;;;;4964815;28;1288;-76
2023/04/16 05:36:51;;;;;;;;;;;20.70;59.10;;;;;;4972714;28;1949;-75
2023/04/16 05:39:17;;;;;;;;;;;20.70;59.10;;;;;;4972931;28;1270;-74
2023/04/16 05:41:43;;;;;;;;;;;20.70;59.00;;;;;;4973414;28;836;-73
2023/04/16 05:44:08;;;;;;;;;;;20.70;59.00;;;;;;4960989;28;1007;-74
2023/04/16 05:46:34;;;;;;;;;;;20.80;59.10;;;;;;4988255;28;1173;-71
2023/04/16 05:48:59;;;;;;;;;;;20.80;59.10;;;;;;4972374;28;1269;-72
2023/04/16 05:51:26;;;;;;;;;;;20.80;59.10;;;;;;4972576;28;1268;-72
2023/04/16 05:53:51;;;;;;;;;;;20.80;59.00;;;;;;4972355;28;856;-72
2023/04/16 05:56:17;;;;;;;;;;;20.80;59.00;;;;;;4971299;28;916;-73
2023/04/16 05:58:42;;;;;;;;;;;20.80;59.00;;;;;;4971275;28;1979;-72
2023/04/16 06:01:09;;;;;;;;;;;20.80;59.00;;;;;;4972564;28;876;-72
2023/04/16 06:03:35;;;;;;;;;;;20.80;59.10;;;;;;4971386;28;796;-72
2023/04/16 06:06:00;;;;;;;;;;;20.80;59.10;;;;;;4971542;28;864;-72
2023/04/16 06:08:25;;;;;;;;;;;20.80;59.20;;;;;;4972262;28;1225;-72
2023/04/16 06:10:51;;;;;;;;;;;20.80;59.20;;;;;;4972867;28;1172;-72
2023/04/16 06:13:17;;;;;;;;;;;20.80;59.20;;;;;;4971402;28;871;-72
2023/04/16 06:15:42;;;;;;;;;;;20.70;59.30;;;;;;4972347;28;925;-71
2023/04/16 06:18:08;;;;;;;;;;;20.70;59.30;;;;;;4971987;28;1899;-72
2023/04/16 06:20:33;;;;;;;;;;;20.70;59.40;;;;;;4972242;28;835;-72
2023/04/16 06:22:59;;;;;;;;;;;20.70;59.50;;;;;;4971193;28;1370;-71
2023/04/16 06:25:25;;;;;;;;;;;20.70;59.50;;;;;;4972318;28;846;-73
2023/04/16 06:27:50;;;;;;;;;;;20.60;59.50;;;;;;4972200;28;1297;-71
2023/04/16 06:30:16;;;;;;;;;;;20.70;59.70;;;;;;4971945;28;1638;-71
2023/04/16 06:32:41;;;;;;;;;;;20.60;59.60;;;;;;4972652;28;855;-71
2023/04/16 06:35:07;;;;;;;;;;;20.60;59.60;;;;;;4970936;28;1018;-71
2023/04/16 06:37:32;;;;;;;;;;;20.60;59.70;;;;;;4970233;28;1971;-72
2023/04/16 06:39:58;;;;;;;;;;;20.60;59.70;;;;;;4971457;28;1334;-72
2023/04/16 06:42:23;;;;;;;;;;;20.60;59.80;;;;;;4971782;28;895;-72
2023/04/16 06:44:49;;;;;;;;;;;20.60;59.80;;;;;;4969435;28;1459;-76
2023/04/16 06:47:15;;;;;;;;;;;20.50;59.80;;;;;;4954892;28;1522;-72
2023/04/16 06:49:40;;;;;;;;;;;20.50;59.80;;;;;;4970865;28;1241;-71
2023/04/16 06:52:05;;;;;;;;;;;20.50;59.90;;;;;;4970595;28;955;-71
2023/04/16 06:54:31;;;;;;;;;;;20.50;59.90;;;;;;4969979;28;2157;-72
2023/04/16 06:56:56;;;;;;;;;;;20.50;60.00;;;;;;4969657;28;1963;-72
2023/04/16 06:59:22;;;;;;;;;;;20.40;60.00;;;;;;4969311;28;1913;-72
2023/04/16 07:01:47;;;;;;;;;;;20.40;60.00;;;;;;4969761;28;1419;-72
2023/04/16 07:04:13;;;;;;;;;;;20.40;60.10;;;;;;4969078;28;2188;-73
2023/04/16 07:06:38;;;;;;;;;;;20.30;60.10;;;;;;4970684;28;2078;-73
2023/04/16 07:09:04;;;;;;;;;;;20.30;60.20;;;;;;4970918;28;1262;-73
2023/04/16 07:11:30;;;;;;;;;;;20.30;60.30;;;;;;4972774;28;1241;-73
2023/04/16 07:13:56;;;;;;;;;;;20.30;60.30;;;;;;4955815;28;1094;-73
2023/04/16 07:16:22;;;;;;;;;;;20.30;60.40;;;;;;4971655;28;905;-73
2023/04/16 07:18:47;;;;;;;;;;;20.20;60.40;;;;;;4972640;28;1959;-73
2023/04/16 07:21:13;;;;;;;;;;;20.30;60.50;;;;;;4973070;28;845;-73
2023/04/16 07:23:38;;;;;;;;;;;20.20;60.50;;;;;;4971260;28;1456;-71
2023/04/16 07:26:03;;;;;;;;;;;20.20;60.70;;;;;;4971787;28;1314;-74
2023/04/16 07:28:29;;;;;;;;;;;20.20;60.70;;;;;;4970927;28;1229;-73
2023/04/16 07:30:55;;;;;;;;;;;20.20;60.70;;;;;;4970691;28;1223;-71
2023/04/16 07:33:20;;;;;;;;;;;20.20;60.80;;;;;;4971141;28;875;-72
2023/04/16 07:35:46;;;;;;;;;;;20.10;60.90;;;;;;4970970;28;972;-73
2023/04/16 07:38:11;;;;;;;;;;;20.10;60.90;;;;;;4970400;28;1969;-72
2023/04/16 07:40:37;;;;;;;;;;;20.10;61.00;;;;;;4971276;28;948;-72
2023/04/16 07:43:02;;;;;;;;;;;20.10;61.10;;;;;;4971086;28;1023;-73
2023/04/16 07:45:28;;;;;;;;;;;20.10;61.10;;;;;;4970765;28;785;-72
2023/04/16 07:47:53;;;;;;;;;;;20.10;61.20;;;;;;4970353;28;1285;-73
2023/04/16 07:50:19;;;;;;;;;;;20.00;61.10;;;;;;4969284;28;878;-72
2023/04/16 07:52:45;;;;;;;;;;;20.00;61.20;;;;;;4973069;28;861;-72
2023/04/16 07:55:11;;;;;;;;;;;20.00;61.30;;;;;;4973572;28;880;-73
2023/04/16 07:57:36;;;;;;;;;;;20.00;61.30;;;;;;4974460;28;1965;-73
2023/04/16 08:00:03;;;;;;;;;;;20.00;61.40;;;;;;4974746;28;1417;-73
2023/04/16 08:02:29;;;;;;;;;;;20.00;61.40;;;;;;4965241;28;1362;-72
2023/04/16 08:04:54;;;;;;;;;;;20.00;61.40;;;;;;4954905;28;1336;-73
2023/04/16 08:07:20;;;;;;;;;;;20.00;61.40;;;;;;4974074;28;792;-73
2023/04/16 08:09:46;;;;;;;;;;;19.90;61.40;;;;;;4973942;28;1323;-74
2023/04/16 08:12:11;;;;;;;;;;;20.00;61.50;;;;;;4974809;28;962;-73
2023/04/16 08:14:37;;;;;;;;;;;19.90;61.40;;;;;;4973723;28;1011;-73
2023/04/16 08:17:02;;;;;;;;;;;19.90;61.50;;;;;;4974071;28;1907;-73
2023/04/16 08:19:28;;;;;;;;;;;19.90;61.50;;;;;;4974708;28;1320;-73
2023/04/16 08:21:54;;;;;;;;;;;19.90;61.60;;;;;;4975835;28;868;-73
2023/04/16 08:24:20;;;;;;;;;;;19.90;61.60;;;;;;4976289;28;1026;-73
2023/04/16 08:26:45;;;;;;;;;;;19.90;61.60;;;;;;4974122;28;864;-73
2023/04/16 08:29:10;;;;;;;;;;;19.90;61.70;;;;;;4973344;28;1239;-73
2023/04/16 08:31:36;;;;;;;;;;;19.90;61.70;;;;;;4974721;28;1366;-73
2023/04/16 08:34:01;;;;;;;;;;;19.80;61.60;;;;;;4974146;28;916;-73
2023/04/16 08:36:27;;;;;;;;;;;19.80;61.70;;;;;;4973832;28;799;-73
2023/04/16 08:38:52;;;;;;;;;;;19.90;61.80;;;;;;4952158;28;5329;-73
2023/04/16 08:41:18;;;;;;;;;;;19.80;61.70;;;;;;4984595;28;4600;-73
2023/04/16 08:43:43;;;;;;;;;;;19.80;61.80;;;;;;4972772;28;1323;-73
2023/04/16 08:46:10;;;;;;;;;;;19.80;61.80;;;;;;4973498;28;1058;-73
2023/04/16 08:48:35;;;;;;;;;;;19.80;61.80;;;;;;4973623;28;1317;-71
2023/04/16 08:51:00;;;;;;;;;;;19.80;61.90;;;;;;4973510;28;817;-72
2023/04/16 08:53:38;;;;;;;;;;;19.80;61.90;;;;;;4973691;28;803;-72
2023/04/16 08:56:04;;;;;;;;;;;19.80;61.90;;;;;;4972243;28;1006;-73
2023/04/16 08:58:31;;;;;;;;;;;19.80;62.00;;;;;;4973394;28;1902;-72
2023/04/16 09:00:56;;;;;;;;;;;19.80;62.00;;;;;;4972916;28;896;-73
2023/04/16 09:03:22;;;;;;;;;;;19.80;62.00;;;;;;4972202;28;892;-72
2023/04/16 09:05:48;;;;;;;;;;;19.70;62.00;;;;;;4972211;28;885;-72
2023/04/16 09:08:13;;;;;;;;;;;19.70;62.00;;;;;;4973622;28;1265;-72
2023/04/16 09:10:39;;;;;;;;;;;19.70;62.00;;;;;;4971812;28;953;-71
2023/04/16 09:13:04;;;;;;;;;;;19.70;62.10;;;;;;4973101;28;1798;-73
2023/04/16 09:15:30;;;;;;;;;;;19.70;62.10;;;;;;4973061;28;1476;-73
2023/04/16 09:17:56;;;;;;;;;;;19.70;62.10;;;;;;4971690;28;1903;-70
2023/04/16 09:20:21;;;;;;;;;;;19.70;62.10;;;;;;4970889;28;1576;-70
2023/04/16 09:22:47;;;;;;;;;;;19.70;62.10;;;;;;4971421;28;1394;-69
2023/04/16 09:25:12;;;;;;;;;;;19.70;62.20;;;;;;4973139;28;1333;-71
2023/04/16 09:27:38;;;;;;;;;;;19.70;62.90;;;;;;4972350;28;1291;-71
2023/04/16 09:30:22;;;;;;;;;;;19.70;62.20;;;;;;4972144;28;1487;-71
2023/04/16 09:32:48;;;;;;;;;;;19.70;62.20;;;;;;4971687;28;1352;-72
2023/04/16 09:35:14;;;;;;;;;;;19.70;62.20;;;;;;4971076;28;1500;-71
2023/04/16 09:37:40;;;;;;;;;;;19.70;62.20;;;;;;4970621;28;1906;-71
2023/04/16 09:40:06;;;;;;;;;;;19.70;62.20;;;;;;4970810;28;1640;-73
2023/04/16 09:42:32;;;;;;;;;;;19.70;62.20;;;;;;4972614;28;1189;-72
2023/04/16 09:44:57;;;;;;;;;;;19.60;62.20;;;;;;4984747;28;1133;-72
2023/04/16 09:47:24;;;;;;;;;;;19.60;62.20;;;;;;4952742;28;1430;-72
2023/04/16 09:49:50;;;;;;;;;;;19.60;62.20;;;;;;4970670;28;1351;-72
2023/04/16 09:52:16;;;;;;;;;;;19.60;62.30;;;;;;4971648;28;840;-72
2023/04/16 09:54:45;;;;;;;;;;;19.60;62.30;;;;;;4971191;28;1201;-72
2023/04/16 09:57:11;;;;;;;;;;;19.60;62.30;;;;;;4984079;28;1906;-72
2023/04/16 09:59:36;;;;;;;;;;;19.60;62.30;;;;;;4971150;28;1362;-72
2023/04/16 10:02:02;;;;;;;;;;;19.60;63.10;;;;;;4972226;28;946;-72
2023/04/16 10:04:27;;;;;;;;;;;19.60;62.30;;;;;;4970957;28;1002;-72
2023/04/16 10:07:03;;;;;;;;;;;19.60;62.40;;;;;;4972458;28;1668;-72
2023/04/16 10:09:35;;;;;;;;;;;19.60;62.40;;;;;;4971817;28;1800;-72
2023/04/16 10:12:01;;;;;;;;;;;19.60;62.40;;;;;;4972189;28;882;-72
2023/04/16 10:14:26;;;;;;;;;;;19.60;62.40;;;;;;4970508;28;915;-72
2023/04/16 10:16:52;;;;;;;;;;;19.60;62.40;;;;;;4971968;28;1870;-72
2023/04/16 10:19:17;;;;;;;;;;;19.60;62.50;;;;;;4970747;28;1320;-72
2023/04/16 10:21:43;;;;;;;;;;;19.50;62.40;;;;;;4971851;28;883;-72
2023/04/16 10:24:09;;;;;;;;;;;19.50;62.40;;;;;;4970105;28;924;-72
2023/04/16 10:26:35;;;;;;;;;;;19.50;62.40;;;;;;4970836;28;1078;-72
2023/04/16 10:29:00;;;;;;;;;;;19.50;62.40;;;;;;4971570;28;1205;-72
2023/04/16 10:31:25;;;;;;;;;;;19.50;62.40;;;;;;4970511;28;1377;-72
2023/04/16 10:33:51;;;;;;;;;;;19.50;62.50;;;;;;4970053;28;1489;-72
2023/04/16 10:36:22;;;;;;;;;;;19.50;62.50;;;;;;4971220;28;1309;-72
2023/04/16 10:38:53;;;;;;;;;;;19.50;62.50;;;;;;4969685;28;2021;-72
2023/04/16 10:41:19;;;;;;;;;;;19.50;62.50;;;;;;4971521;28;1309;-72
2023/04/16 10:43:48;;;;;;;;;;;19.50;62.50;;;;;;4970050;28;1426;-72
2023/04/16 10:46:17;;;;;;;;;;;19.50;62.50;;;;;;4969641;28;1204;-72
2023/04/16 10:48:43;;;;;;;;;;;19.50;62.50;;;;;;4971017;28;1329;-72
2023/04/16 10:51:08;;;;;;;;;;;19.50;62.50;;;;;;4962957;28;857;-72
2023/04/16 10:53:34;;;;;;;;;;;19.50;62.50;;;;;;4970661;28;1253;-72
2023/04/16 10:56:03;;;;;;;;;;;19.50;62.40;;;;;;4970499;28;1341;-72
2023/04/16 10:58:29;;;;;;;;;;;19.50;62.40;;;;;;4971061;28;1895;-72
2023/04/16 11:00:54;;;;;;;;;;;19.60;62.40;;;;;;4970856;28;904;-72
2023/04/16 11:03:20;;;;;;;;;;;19.60;62.30;;;;;;4971105;28;2360;-72
2023/04/16 11:05:45;;;;;;;;;;;19.60;62.20;;;;;;4969608;28;1945;-71
2023/04/16 11:08:14;;;;;;;;;;;19.60;62.20;;;;;;4971090;28;1384;-71
2023/04/16 11:10:40;;;;;;;;;;;19.60;62.20;;;;;;4970345;28;1503;-72
2023/04/16 11:13:06;;;;;;;;;;;19.60;62.80;;;;;;4970399;28;982;-72
2023/04/16 11:15:32;;;;;;;;;;;19.70;62.10;;;;;;4971528;28;856;-72
2023/04/16 11:17:57;;;;;;;;;;;19.70;62.10;;;;;;4949712;28;2119;-72
2023/04/16 11:20:24;;;;;;;;;;;19.70;62.10;;;;;;4970862;28;999;-72
2023/04/16 11:22:50;;;;;;;;;;;19.70;62.10;;;;;;4970964;28;1026;-72
2023/04/16 11:25:25;;;;;;;;;;;19.70;62.00;;;;;;4970910;28;1435;-74
2023/04/16 11:27:50;;;;;;;;;;;19.70;62.00;;;;;;4974528;28;1531;-74
2023/04/16 11:30:16;;;;;;;;;;;19.70;62.00;;;;;;4954013;28;1541;-74
2023/04/16 11:32:42;;;;;;;;;;;19.70;62.00;;;;;;4973967;28;1393;-73
2023/04/16 11:35:14;;;;;;;;;;;19.70;62.00;;;;;;4974713;28;924;-72
2023/04/16 11:37:40;;;;;;;;;;;19.70;62.10;;;;;;4988336;28;1910;-72
2023/04/16 11:40:05;;;;;;;;;;;19.70;62.00;;;;;;4970434;28;1339;-71
2023/04/16 11:42:31;;;;;;;;;;;19.70;62.10;;;;;;4972343;28;1064;-72
2023/04/16 11:44:59;;;;;;;;;;;19.70;62.10;;;;;;4974466;28;863;-73
2023/04/16 11:47:24;;;;;;;;;;;19.60;62.00;;;;;;4974132;28;1561;-73
2023/04/16 11:49:50;;;;;;;;;;;19.60;62.10;;;;;;4973590;28;1348;-73
2023/04/16 11:52:29;;;;;;;;;;;19.60;62.10;;;;;;4972316;28;1462;-73
2023/04/16 11:54:55;;;;;;;;;;;19.60;62.10;;;;;;4974030;28;919;-73
2023/04/16 11:57:27;;;;;;;;;;;19.60;62.10;;;;;;4973944;28;1968;-73
2023/04/16 11:59:52;;;;;;;;;;;19.60;62.20;;;;;;4974702;28;1230;-74
2023/04/16 12:02:33;;;;;;;;;;;19.60;62.20;;;;;;4975052;28;884;-74
2023/04/16 12:04:58;;;;;;;;;;;19.60;62.20;;;;;;4972378;28;915;-73
2023/04/16 12:07:24;;;;;;;;;;;19.60;62.30;;;;;;4973113;28;872;-73
2023/04/16 12:09:49;;;;;;;;;;;19.50;62.30;;;;;;4974533;28;1236;-73
2023/04/16 12:12:25;;;;;;;;;;;19.50;62.30;;;;;;4973074;28;860;-74
2023/04/16 12:14:50;;;;;;;;;;;19.50;62.30;;;;;;4974413;28;895;-73
2023/04/16 12:17:19;;;;;;;;;;;19.50;62.30;;;;;;4973998;28;1902;-74
2023/04/16 12:19:51;;;;;;;;;;;19.50;62.40;;;;;;4971568;28;1651;-72
2023/04/16 12:22:25;;;;;;;;;;;19.50;62.40;;;;;;4972840;28;1662;-73
2023/04/16 12:24:54;;;;;;;;;;;19.50;62.40;;;;;;4974225;28;875;-73
2023/04/16 12:27:21;;;;;;;;;;;19.50;62.40;;;;;;4973299;28;785;-72
2023/04/16 12:30:01;;;;;;;;;;;19.50;62.30;;;;;;4985728;28;1510;-72
2023/04/16 12:32:26;;;;;;;;;;;19.60;62.40;;;;;;4955656;28;1421;-72
2023/04/16 12:34:52;;;;;;;;;;;19.50;62.30;;;;;;4974200;28;1006;-72
2023/04/16 12:37:17;;;;;;;;;;;19.60;62.70;;;;;;4972985;28;1978;-73
2023/04/16 12:39:43;;;;;;;;;;;19.60;63.80;;;;;;4974110;28;1285;-71
2023/04/16 12:42:10;;;;;;;;;;;19.60;63.50;;;;;;4971923;28;1011;-70
2023/04/16 12:44:35;;;;;;;;;;;19.60;63.20;;;;;;4973559;28;832;-72
2023/04/16 12:47:01;;;;;;;;;;;19.70;63.10;;;;;;4972870;28;1009;-71
2023/04/16 12:49:26;;;;;;;;;;;19.70;63.00;;;;;;4971641;28;2096;-72
2023/04/16 12:51:52;;;;;;;;;;;19.70;62.80;;;;;;4972650;28;1489;-71
2023/04/16 12:54:17;;;;;;;;;;;19.70;62.70;;;;;;4973029;28;1250;-72
2023/04/16 12:56:42;;;;;;;;;;;19.70;62.70;;;;;;4960811;28;809;-72
2023/04/16 12:59:09;;;;;;;;;;;19.80;62.60;;;;;;4972623;28;1950;-72
2023/04/16 13:01:35;;;;;;;;;;;19.80;62.70;;;;;;4971840;28;1346;-73
2023/04/16 13:04:01;;;;;;;;;;;19.80;62.60;;;;;;4972930;28;1753;-73
2023/04/16 13:06:26;;;;;;;;;;;19.80;62.50;;;;;;4973756;28;1534;-73
2023/04/16 13:08:52;;;;;;;;;;;19.80;62.50;;;;;;4972687;28;2139;-73
2023/04/16 13:11:18;;;;;;;;;;;19.80;62.50;;;;;;4973164;28;1492;-73
2023/04/16 13:13:43;;;;;;;;;;;19.70;62.40;;;;;;4972189;28;1939;-73
2023/04/16 13:16:09;;;;;;;;;;;19.70;62.50;;;;;;4973162;28;1349;-73
2023/04/16 13:18:35;;;;;;;;;;;19.70;62.50;;;;;;4972982;28;1984;-73
2023/04/16 13:21:01;;;;;;;;;;;19.70;62.50;;;;;;4971889;28;857;-73
2023/04/16 13:23:26;;;;;;;;;;;19.70;62.50;;;;;;4972703;28;848;-73
2023/04/16 13:25:52;;;;;;;;;;;19.70;62.50;;;;;;4972721;28;2178;-73
2023/04/16 13:28:17;;;;;;;;;;;19.70;62.60;;;;;;4971768;28;2210;-73
2023/04/16 13:30:43;;;;;;;;;;;19.70;62.60;;;;;;4971235;28;1928;-73
2023/04/16 13:33:08;;;;;;;;;;;19.70;62.60;;;;;;4972430;28;1291;-72
2023/04/16 13:35:34;;;;;;;;;;;19.70;62.70;;;;;;4971569;28;1390;-73
2023/04/16 13:37:59;;;;;;;;;;;19.70;62.70;;;;;;4972192;28;1879;-72
2023/04/16 13:40:25;;;;;;;;;;;19.70;62.70;;;;;;4972347;28;1335;-73
2023/04/16 13:42:50;;;;;;;;;;;19.60;62.70;;;;;;4971441;28;1280;-73
2023/04/16 13:45:15;;;;;;;;;;;19.60;62.70;;;;;;4970295;28;1321;-73
2023/04/16 13:47:41;;;;;;;;;;;19.60;62.80;;;;;;4973127;28;1348;-73
2023/04/16 13:50:07;;;;;;;;;;;19.60;62.80;;;;;;4971757;28;1622;-72
2023/04/16 13:52:32;;;;;;;;;;;19.60;62.80;;;;;;4971630;28;1031;-73
2023/04/16 13:54:58;;;;;;;;;;;19.60;62.80;;;;;;4972707;28;1284;-72
2023/04/16 13:57:23;;;;;;;;;;;19.60;62.90;;;;;;4971460;28;1919;-73
2023/04/16 13:59:49;;;;;;;;;;;19.60;62.90;;;;;;4972495;28;1397;-73
2023/04/16 14:02:14;;;;;;;;;;;19.60;62.90;;;;;;4971685;28;1958;-74
2023/04/16 14:04:40;;;;;;;;;;;19.60;63.00;;;;;;4972249;28;1418;-73
2023/04/16 14:07:06;;;;;;;;;;;19.50;62.90;;;;;;4971489;28;2168;-72
2023/04/16 14:09:31;;;;;;;;;;;19.50;63.00;;;;;;4972315;28;1359;-72
2023/04/16 14:11:57;;;;;;;;;;;19.50;63.00;;;;;;4972493;28;1551;-74
2023/04/16 14:14:23;;;;;;;;;;;19.50;63.00;;;;;;4970771;28;1274;-71
2023/04/16 14:16:48;;;;;;;;;;;19.50;63.00;;;;;;4972169;28;1906;-72
2023/04/16 14:19:14;;;;;;;;;;;19.50;63.10;;;;;;4971785;28;1302;-72
2023/04/16 14:21:39;;;;;;;;;;;19.50;63.10;;;;;;4972382;28;838;-72
2023/04/16 14:24:05;;;;;;;;;;;19.50;63.10;;;;;;4972062;28;915;-71
2023/04/16 14:26:30;;;;;;;;;;;19.50;63.20;;;;;;4972294;28;872;-72